createdAt,value
2023-07-08T06:51:02.778Z,62.55
2023-07-08T06:52:02.400Z,63.75
2023-07-08T06:53:02.413Z,64.83
2023-07-08T06:54:02.436Z,64.25
2023-07-08T06:55:04.781Z,65.72
2023-07-08T06:56:02.509Z,66.25
2023-07-08T06:57:02.506Z,66.75
2023-07-08T06:58:02.568Z,66.25
2023-07-08T06:59:02.574Z,66.55
2023-07-08T07:00:02.576Z,67.25
2023-07-08T07:01:02.862Z,66.75
2023-07-08T07:02:02.619Z,66.55
2023-07-08T07:03:02.752Z,68.36
2023-07-08T07:04:02.791Z,66.86
2023-07-08T07:05:02.698Z,66.96
2023-07-08T07:06:02.747Z,65.05
2023-07-08T07:07:02.796Z,63.95
2023-07-08T07:08:02.773Z,62.95
2023-07-08T07:09:02.827Z,63.12
2023-07-08T07:10:02.817Z,64.52
2023-07-08T07:11:02.875Z,63.72
2023-07-08T07:12:02.908Z,63.12
2023-07-08T07:13:02.946Z,63.32
2023-07-08T07:14:03.008Z,63.49
2023-07-08T07:15:02.955Z,62.99
2023-07-08T07:16:03.421Z,62.19
2023-07-08T07:17:08.686Z,61.09
2023-07-08T07:18:03.071Z,61.99
2023-07-08T07:19:03.076Z,62.29
2023-07-08T07:20:03.089Z,62.16
2023-07-08T07:21:03.152Z,61.57
2023-07-08T07:22:03.147Z,61.36
2023-07-08T07:23:03.276Z,61.26
2023-07-08T07:24:03.218Z,63.13
2023-07-08T07:25:03.276Z,62.93
2023-07-08T07:26:03.430Z,63.03
2023-07-08T07:27:03.276Z,61.63
2023-07-08T07:28:03.310Z,63.03
2023-07-08T07:29:03.374Z,63.83
2023-07-08T07:30:03.393Z,62.93
2023-07-08T07:31:03.417Z,62.63
2023-07-08T07:32:03.418Z,62.83
2023-07-08T07:33:03.486Z,63.00
2023-07-08T07:34:03.481Z,62.90
2023-07-08T07:35:03.532Z,62.81
2023-07-08T07:36:03.584Z,62.90
2023-07-08T07:37:03.592Z,63.00
2023-07-08T07:38:03.597Z,62.48
2023-07-08T07:39:03.616Z,64.07
2023-07-08T07:40:03.731Z,63.37
2023-07-08T07:41:03.681Z,63.47
2023-07-08T07:42:03.747Z,64.17
2023-07-08T07:43:03.728Z,63.87
2023-07-08T07:44:03.759Z,63.97
2023-07-08T07:45:03.832Z,64.14
2023-07-08T07:46:04.017Z,64.24
2023-07-08T07:47:03.964Z,63.34
2023-07-08T07:48:03.984Z,62.24
2023-07-08T07:49:03.914Z,62.87
2023-07-08T07:50:04.007Z,63.54
2023-07-08T07:51:03.975Z,62.15
2023-07-08T07:52:04.004Z,62.64
2023-07-08T07:53:04.031Z,60.95
2023-07-08T07:54:04.056Z,61.74
2023-07-08T07:55:04.114Z,61.65
2023-07-08T07:56:04.349Z,61.74
2023-07-08T07:57:04.136Z,61.65
2023-07-08T07:58:04.167Z,60.85
2023-07-08T07:59:04.199Z,59.52
2023-07-08T08:00:04.286Z,60.92
2023-07-08T08:01:04.283Z,61.71
2023-07-08T08:02:04.462Z,63.21
2023-07-08T08:03:04.469Z,63.51
2023-07-08T08:04:04.371Z,62.12
2023-07-08T08:05:04.423Z,63.01
2023-07-08T08:06:04.427Z,63.91
2023-07-08T08:07:04.453Z,62.91
2023-07-08T08:08:04.464Z,62.12
2023-07-08T08:09:04.507Z,61.71
2023-07-08T08:10:04.521Z,61.61
2023-07-08T08:11:04.543Z,62.41
2023-07-08T08:12:04.583Z,62.71
2023-07-08T08:13:04.607Z,62.88
2023-07-08T08:14:04.693Z,62.59
2023-07-08T08:15:04.673Z,62.38
2023-07-08T08:16:04.958Z,60.99
2023-07-08T08:17:04.764Z,61.39
2023-07-08T08:18:04.778Z,61.46
2023-07-08T08:19:07.940Z,61.58
2023-07-08T08:20:04.819Z,63.48
2023-07-08T08:21:04.839Z,62.65
2023-07-08T08:22:04.869Z,63.65
2023-07-08T08:23:04.927Z,63.95
2023-07-08T08:24:04.935Z,63.75
2023-07-08T08:25:04.958Z,62.55
2023-07-08T08:26:05.004Z,62.65
2023-07-08T08:27:05.053Z,62.85
2023-07-08T08:28:05.054Z,63.45
2023-07-08T08:29:05.073Z,63.22
2023-07-08T08:30:05.112Z,59.94
2023-07-08T08:31:05.150Z,59.44
2023-07-08T08:32:05.205Z,60.03
2023-07-08T08:33:05.230Z,61.13
2023-07-08T08:34:05.269Z,59.94
2023-07-08T08:35:05.258Z,59.61
2023-07-08T08:36:05.300Z,59.68
2023-07-08T08:37:05.322Z,60.68
2023-07-08T08:38:05.377Z,60.97
2023-07-08T08:39:05.406Z,62.63
2023-07-08T08:40:05.418Z,62.04
2023-07-08T08:41:05.453Z,61.04
2023-07-08T08:42:05.487Z,60.74
2023-07-08T08:43:05.570Z,59.75
2023-07-08T08:44:05.529Z,61.24
2023-07-08T08:45:05.605Z,61.61
2023-07-08T08:46:05.649Z,61.71
2023-07-08T08:47:05.621Z,60.91
2023-07-08T08:48:05.697Z,60.02
2023-07-08T08:49:05.726Z,59.32
2023-07-08T08:50:05.726Z,60.61
2023-07-08T08:51:05.766Z,60.61
2023-07-08T08:52:05.805Z,60.91
2023-07-08T08:53:05.824Z,59.62
2023-07-08T08:54:05.866Z,58.83
2023-07-08T08:55:05.903Z,58.60
2023-07-08T08:56:05.919Z,57.83
2023-07-08T08:57:05.939Z,56.91
2023-07-08T08:58:05.988Z,57.81
2023-07-08T08:59:06.079Z,58.60
2023-07-08T09:00:06.064Z,59.49
2023-07-08T09:01:06.131Z,58.97
2023-07-08T09:02:06.175Z,58.07
2023-07-08T09:03:06.204Z,57.45
2023-07-08T09:04:06.169Z,58.64
2023-07-08T09:05:06.227Z,58.42
2023-07-08T09:06:06.230Z,58.78
2023-07-08T09:07:06.243Z,58.48
2023-07-08T09:08:06.280Z,57.46
2023-07-08T09:09:06.312Z,57.76
2023-07-08T09:10:06.432Z,56.95
2023-07-08T09:11:06.386Z,57.14
2023-07-08T09:12:06.409Z,56.13
2023-07-08T09:13:06.443Z,55.53
2023-07-08T09:14:06.612Z,55.01
2023-07-08T09:15:06.543Z,54.49
2023-07-08T09:16:06.550Z,53.70
2023-07-08T09:17:06.571Z,53.47
2023-07-08T09:18:06.684Z,54.27
2023-07-08T09:19:06.672Z,54.73
2023-07-08T09:20:06.721Z,54.53
2023-07-08T09:21:06.704Z,54.34
2023-07-08T09:22:06.773Z,53.15
2023-07-08T09:23:06.779Z,53.13
2023-07-08T09:24:06.805Z,54.24
2023-07-08T09:25:06.867Z,53.92
2023-07-08T09:26:06.920Z,54.61
2023-07-08T09:27:06.917Z,53.79
2023-07-08T09:28:06.952Z,53.39
2023-07-08T09:29:06.979Z,53.50
2023-07-08T09:30:07.017Z,53.69
2023-07-08T09:31:07.106Z,55.40
2023-07-08T09:32:07.110Z,55.79
2023-07-08T09:33:07.169Z,55.22
2023-07-08T09:34:07.174Z,54.93
2023-07-08T09:35:07.227Z,55.33
2023-07-08T09:36:07.224Z,54.44
2023-07-08T09:37:07.264Z,53.75
2023-07-08T09:38:07.301Z,53.25
2023-07-08T09:39:07.333Z,52.83
2023-07-08T09:40:07.379Z,53.13
2023-07-08T09:41:07.425Z,53.13
2023-07-08T09:42:07.446Z,52.44
2023-07-08T09:43:07.496Z,51.64
2023-07-08T09:44:07.524Z,51.05
2023-07-08T09:45:07.671Z,51.84
2023-07-08T09:46:07.634Z,53.10
2023-07-08T09:47:07.653Z,53.30
2023-07-08T09:48:07.783Z,53.08
2023-07-08T09:49:07.732Z,53.47
2023-07-08T09:50:07.725Z,52.78
2023-07-08T09:51:07.764Z,53.27
2023-07-08T09:52:07.818Z,53.57
2023-07-08T09:53:07.871Z,53.17
2023-07-08T09:54:07.897Z,52.78
2023-07-08T09:55:07.911Z,53.27
2023-07-08T09:56:07.953Z,52.39
2023-07-08T09:57:07.986Z,52.39
2023-07-08T09:58:08.073Z,51.69
2023-07-08T09:59:08.100Z,51.99
2023-07-08T10:00:08.090Z,51.13
2023-07-08T10:01:08.154Z,51.92
2023-07-08T10:02:08.181Z,52.31
2023-07-08T10:03:08.233Z,52.21
2023-07-08T10:04:08.312Z,52.11
2023-07-08T10:05:08.344Z,52.21
2023-07-08T10:06:08.301Z,52.11
2023-07-08T10:07:08.341Z,51.62
2023-07-08T10:08:08.382Z,50.63
2023-07-08T10:09:08.411Z,49.45
2023-07-08T10:10:08.514Z,50.63
2023-07-08T10:11:08.508Z,50.43
2023-07-08T10:12:08.565Z,50.63
2023-07-08T10:13:08.554Z,49.22
2023-07-08T10:14:14.437Z,47.75
2023-07-08T10:15:08.649Z,46.56
2023-07-08T10:16:08.700Z,45.95
2023-07-08T10:17:08.723Z,46.94
2023-07-08T10:18:08.797Z,48.00
2023-07-08T10:19:08.773Z,47.97
2023-07-08T10:20:08.839Z,47.75
2023-07-08T10:21:08.840Z,47.44
2023-07-08T10:22:08.875Z,47.14
2023-07-08T10:23:08.917Z,46.33
2023-07-08T10:24:08.948Z,46.41
2023-07-08T10:25:09.029Z,44.91
2023-07-08T10:26:09.024Z,43.04
2023-07-08T10:27:09.111Z,42.63
2023-07-08T10:28:09.150Z,42.71
2023-07-08T10:29:09.132Z,42.41
2023-07-08T10:30:09.231Z,43.86
2023-07-08T10:31:09.230Z,42.57
2023-07-08T10:32:09.243Z,42.57
2023-07-08T10:33:09.343Z,42.37
2023-07-08T10:34:09.338Z,41.39
2023-07-08T10:35:09.367Z,39.92
2023-07-08T10:36:09.411Z,38.64
2023-07-08T10:37:09.429Z,37.45
2023-07-08T10:38:09.482Z,37.66
2023-07-08T10:39:09.496Z,37.56
2023-07-08T10:40:09.566Z,38.35
2023-07-08T10:41:09.573Z,38.06
2023-07-08T10:42:09.608Z,38.56
2023-07-08T10:43:09.658Z,38.37
2023-07-08T10:44:09.694Z,39.37
2023-07-08T10:45:09.764Z,39.98
2023-07-08T10:46:09.794Z,40.56
2023-07-08T10:47:09.830Z,40.86
2023-07-08T10:48:09.880Z,41.25
2023-07-08T10:49:09.871Z,40.78
2023-07-08T10:50:09.913Z,40.48
2023-07-08T10:51:09.970Z,40.00
2023-07-08T10:52:09.997Z,38.42
2023-07-08T10:53:10.101Z,39.72
2023-07-08T10:54:10.060Z,41.11
2023-07-08T10:55:10.103Z,40.53
2023-07-08T10:56:10.141Z,40.53
2023-07-08T10:57:10.193Z,40.92
2023-07-08T10:58:10.260Z,40.23
2023-07-08T10:59:10.451Z,40.74
2023-07-08T11:00:10.291Z,40.45
2023-07-08T11:01:10.346Z,40.25
2023-07-08T11:02:10.353Z,40.23
2023-07-08T11:03:10.508Z,40.72
2023-07-08T11:04:10.576Z,40.23
2023-07-08T11:05:10.467Z,40.45
2023-07-08T11:06:10.501Z,41.51
2023-07-08T11:07:10.542Z,41.02
2023-07-08T11:08:10.583Z,41.88
2023-07-08T11:09:10.674Z,41.27
2023-07-08T11:10:10.662Z,41.86
2023-07-08T11:11:15.856Z,41.16
2023-07-08T11:12:10.728Z,39.86
2023-07-08T11:13:10.757Z,39.53
2023-07-08T11:14:10.844Z,39.53
2023-07-08T11:15:10.861Z,39.31
2023-07-08T11:16:10.922Z,39.88
2023-07-08T11:17:10.910Z,38.98
2023-07-08T11:18:10.937Z,38.88
2023-07-08T11:19:11.488Z,39.25
2023-07-08T11:20:11.013Z,39.15
2023-07-08T11:21:11.049Z,38.76
2023-07-08T11:22:11.084Z,39.86
2023-07-08T11:23:11.136Z,38.39
2023-07-08T11:24:11.194Z,37.13
2023-07-08T11:25:11.219Z,37.63
2023-07-08T11:26:11.284Z,37.35
2023-07-08T11:27:11.286Z,38.33
2023-07-08T11:28:11.531Z,39.51
2023-07-08T11:29:11.398Z,38.43
2023-07-08T11:30:11.390Z,37.76
2023-07-08T11:31:11.486Z,38.06
2023-07-08T11:32:11.462Z,39.03
2023-07-08T11:33:11.571Z,39.15
2023-07-08T11:34:11.542Z,38.76
2023-07-08T11:35:11.610Z,37.56
2023-07-08T11:36:11.612Z,38.35
2023-07-08T11:37:11.722Z,37.84
2023-07-08T11:38:11.686Z,38.60
2023-07-08T11:39:11.737Z,38.21
2023-07-08T11:40:11.771Z,38.21
2023-07-08T11:41:11.804Z,38.31
2023-07-08T11:42:11.875Z,39.29
2023-07-08T11:43:11.882Z,39.01
2023-07-08T11:44:11.918Z,38.53
2023-07-08T11:45:11.949Z,38.74
2023-07-08T11:46:12.038Z,39.82
2023-07-08T11:47:12.036Z,40.03
2023-07-08T11:48:12.259Z,40.92
2023-07-08T11:49:12.106Z,39.88
2023-07-08T11:50:12.183Z,40.39
2023-07-08T11:51:12.208Z,42.06
2023-07-08T11:52:12.214Z,41.77
2023-07-08T11:53:12.276Z,41.56
2023-07-08T11:54:12.293Z,41.19
2023-07-08T11:55:12.328Z,42.38
2023-07-08T11:56:12.355Z,41.88
2023-07-08T11:57:12.404Z,41.88
2023-07-08T11:58:12.456Z,42.57
2023-07-08T11:59:12.482Z,43.95
2023-07-08T12:00:12.496Z,43.26
2023-07-08T12:01:12.590Z,43.68
2023-07-08T12:02:12.596Z,42.59
2023-07-08T12:03:12.740Z,41.80
2023-07-08T12:04:12.640Z,41.51
2023-07-08T12:05:12.683Z,40.80
2023-07-08T12:06:12.714Z,40.21
2023-07-08T12:07:12.785Z,40.41
2023-07-08T12:08:12.818Z,40.70
2023-07-08T12:09:14.886Z,40.70
2023-07-08T12:10:12.864Z,41.29
2023-07-08T12:11:12.899Z,41.78
2023-07-08T12:12:12.930Z,41.88
2023-07-08T12:13:13.009Z,42.18
2023-07-08T12:14:13.089Z,42.08
2023-07-08T12:15:13.066Z,40.58
2023-07-08T12:16:13.083Z,40.80
2023-07-08T12:17:13.191Z,40.11
2023-07-08T12:18:13.183Z,39.50
2023-07-08T12:19:13.204Z,38.64
2023-07-08T12:20:13.273Z,40.09
2023-07-08T12:21:13.273Z,39.40
2023-07-08T12:22:13.298Z,40.31
2023-07-08T12:23:13.335Z,39.92
2023-07-08T12:24:13.366Z,40.19
2023-07-08T12:25:13.433Z,41.39
2023-07-08T12:26:13.465Z,42.18
2023-07-08T12:27:14.142Z,40.70
2023-07-08T12:28:13.509Z,40.39
2023-07-08T12:29:13.544Z,40.21
2023-07-08T12:30:13.588Z,40.80
2023-07-08T12:31:13.669Z,39.92
2023-07-08T12:32:13.652Z,40.29
2023-07-08T12:33:13.695Z,39.90
2023-07-08T12:34:13.736Z,40.19
2023-07-08T12:35:13.772Z,40.09
2023-07-08T12:36:13.813Z,40.00
2023-07-08T12:37:13.821Z,40.39
2023-07-08T12:38:13.881Z,40.09
2023-07-08T12:39:13.908Z,38.52
2023-07-08T12:40:13.951Z,39.01
2023-07-08T12:41:14.013Z,39.01
2023-07-08T12:42:14.000Z,38.01
2023-07-08T12:43:14.068Z,38.21
2023-07-08T12:44:14.067Z,37.92
2023-07-08T12:45:14.104Z,38.90
2023-07-08T12:46:14.205Z,38.21
2023-07-08T12:47:14.234Z,37.52
2023-07-08T12:48:14.220Z,37.82
2023-07-08T12:49:14.265Z,38.50
2023-07-08T12:50:14.324Z,38.01
2023-07-08T12:51:14.393Z,38.11
2023-07-08T12:52:14.357Z,37.80
2023-07-08T12:53:14.395Z,37.99
2023-07-08T12:54:14.439Z,39.17
2023-07-08T12:55:14.461Z,37.92
2023-07-08T12:56:14.526Z,37.92
2023-07-08T12:57:14.534Z,38.11
2023-07-08T12:58:14.565Z,38.80
2023-07-08T12:59:14.664Z,37.23
2023-07-08T13:00:14.642Z,37.70
2023-07-08T13:01:14.709Z,37.21
2023-07-08T13:02:14.727Z,37.58
2023-07-08T13:03:14.822Z,36.13
2023-07-08T13:04:14.875Z,35.72
2023-07-08T13:05:14.894Z,35.64
2023-07-08T13:06:14.867Z,35.83
2023-07-08T13:08:14.956Z,36.52
2023-07-08T13:09:15.000Z,37.50
2023-07-08T13:10:15.003Z,37.50
2023-07-08T13:11:15.061Z,37.70
2023-07-08T13:12:15.077Z,36.62
2023-07-08T13:13:15.134Z,35.93
2023-07-08T13:14:15.263Z,35.93
2023-07-08T13:15:15.199Z,35.74
2023-07-08T13:16:15.276Z,36.52
2023-07-08T13:17:15.276Z,35.64
2023-07-08T13:18:15.285Z,35.91
2023-07-08T13:19:15.355Z,36.11
2023-07-08T13:20:15.368Z,36.30
2023-07-08T13:21:15.444Z,36.30
2023-07-08T13:22:15.433Z,35.72
2023-07-08T13:23:15.484Z,36.82
2023-07-08T13:24:15.502Z,36.60
2023-07-08T13:25:15.551Z,36.01
2023-07-08T13:26:15.668Z,35.80
2023-07-08T13:27:15.607Z,36.51
2023-07-08T13:28:15.658Z,36.70
2023-07-08T13:29:15.680Z,36.29
2023-07-08T13:30:15.773Z,36.40
2023-07-08T13:31:15.897Z,37.29
2023-07-08T13:32:15.799Z,36.30
2023-07-08T13:33:15.826Z,36.90
2023-07-08T13:34:15.871Z,37.48
2023-07-08T13:35:15.894Z,37.38
2023-07-08T13:36:15.956Z,36.30
2023-07-08T13:37:16.003Z,37.19
2023-07-08T13:38:16.021Z,36.40
2023-07-08T13:39:16.062Z,36.90
2023-07-08T13:40:16.082Z,37.80
2023-07-08T13:41:16.107Z,37.50
2023-07-08T13:42:16.152Z,37.40
2023-07-08T13:43:16.207Z,37.50
2023-07-08T13:44:16.211Z,38.48
2023-07-08T13:45:16.259Z,38.39
2023-07-08T13:46:16.334Z,38.39
2023-07-08T13:47:16.354Z,38.48
2023-07-08T13:48:16.364Z,38.19
2023-07-08T13:49:16.453Z,37.78
2023-07-08T13:50:16.446Z,36.40
2023-07-08T13:51:16.467Z,37.21
2023-07-08T13:52:16.509Z,36.52
2023-07-08T13:53:16.543Z,36.91
2023-07-08T13:54:16.624Z,36.32
2023-07-08T13:55:16.617Z,37.29
2023-07-08T13:56:16.657Z,37.19
2023-07-08T13:57:16.680Z,37.58
2023-07-08T13:58:16.734Z,37.09
2023-07-08T13:59:16.785Z,37.27
2023-07-08T14:00:16.803Z,36.37
2023-07-08T14:01:16.859Z,36.57
2023-07-08T14:02:16.907Z,36.35
2023-07-08T14:03:17.118Z,36.74
2023-07-08T14:04:16.996Z,35.25
2023-07-08T14:05:16.975Z,35.24
2023-07-08T14:06:17.003Z,35.53
2023-07-08T14:07:17.038Z,35.44
2023-07-08T14:08:17.072Z,35.53
2023-07-08T14:09:17.154Z,35.65
2023-07-08T14:10:17.248Z,35.34
2023-07-08T14:11:17.188Z,35.53
2023-07-08T14:12:17.236Z,36.02
2023-07-08T14:13:17.263Z,35.44
2023-07-08T14:14:17.294Z,35.55
2023-07-08T14:15:17.364Z,36.24
2023-07-08T14:16:17.419Z,35.55
2023-07-08T14:17:17.403Z,35.35
2023-07-08T14:18:17.445Z,35.85
2023-07-08T14:19:17.985Z,36.22
2023-07-08T14:20:17.519Z,36.22
2023-07-08T14:21:17.556Z,35.73
2023-07-08T14:22:17.593Z,35.44
2023-07-08T14:23:17.622Z,34.55
2023-07-08T14:24:17.690Z,36.10
2023-07-08T14:25:17.705Z,35.60
2023-07-08T14:26:17.737Z,33.64
2023-07-08T14:27:17.821Z,34.83
2023-07-08T14:28:17.808Z,34.44
2023-07-08T14:29:17.856Z,33.46
2023-07-08T14:30:17.924Z,34.64
2023-07-08T14:31:17.953Z,33.46
2023-07-08T14:32:17.969Z,33.26
2023-07-08T14:33:17.988Z,35.03
2023-07-08T14:34:18.043Z,34.05
2023-07-08T14:35:18.090Z,34.83
2023-07-08T14:36:18.104Z,35.01
2023-07-08T14:37:18.142Z,34.42
2023-07-08T14:38:18.249Z,35.40
2023-07-08T14:39:18.270Z,35.40
2023-07-08T14:40:18.281Z,35.38
2023-07-08T14:41:18.322Z,34.78
2023-07-08T14:42:18.325Z,33.97
2023-07-08T14:43:18.354Z,32.29
2023-07-08T14:44:18.402Z,31.87
2023-07-08T14:45:18.443Z,32.03
2023-07-08T14:46:18.547Z,31.25
2023-07-08T14:47:18.528Z,30.85
2023-07-08T14:48:18.557Z,31.41
2023-07-08T14:49:18.583Z,31.10
2023-07-08T14:50:18.630Z,30.48
2023-07-08T14:51:18.691Z,30.85
2023-07-08T14:52:18.706Z,29.48
2023-07-08T14:53:18.747Z,31.26
2023-07-08T14:54:18.783Z,31.26
2023-07-08T14:55:18.826Z,31.26
2023-07-08T14:56:18.903Z,31.05
2023-07-08T14:57:18.906Z,30.55
2023-07-08T14:58:18.981Z,29.36
2023-07-08T14:59:18.984Z,29.61
2023-07-08T15:00:19.031Z,28.44
2023-07-08T15:01:19.210Z,28.15
2023-07-08T15:02:19.131Z,28.34
2023-07-08T15:03:19.212Z,28.26
2023-07-08T15:04:19.199Z,28.18
2023-07-08T15:05:19.232Z,28.98
2023-07-08T15:06:19.311Z,30.57
2023-07-08T15:07:19.320Z,30.97
2023-07-08T15:08:19.361Z,30.72
2023-07-08T15:09:19.404Z,30.83
2023-07-08T15:10:19.449Z,31.84
2023-07-08T15:11:19.514Z,31.85
2023-07-08T15:12:19.561Z,32.75
2023-07-08T15:13:19.574Z,32.76
2023-07-08T15:14:19.614Z,32.26
2023-07-08T15:15:19.659Z,32.35
2023-07-08T15:16:19.710Z,33.14
2023-07-08T15:17:19.840Z,32.16
2023-07-08T15:18:19.927Z,33.33
2023-07-08T15:19:19.900Z,32.47
2023-07-08T15:20:19.865Z,32.97
2023-07-08T15:21:19.890Z,34.16
2023-07-08T15:22:19.966Z,33.97
2023-07-08T15:23:19.986Z,34.08
2023-07-08T15:24:20.009Z,34.67
2023-07-08T15:25:20.059Z,35.17
2023-07-08T15:26:20.088Z,34.70
2023-07-08T15:27:20.154Z,34.70
2023-07-08T15:28:20.180Z,33.43
2023-07-08T15:29:20.310Z,33.94
2023-07-08T15:30:20.297Z,33.25
2023-07-08T15:31:20.349Z,34.70
2023-07-08T15:32:39.091Z,34.41
2023-07-08T15:33:20.414Z,33.61
2023-07-08T15:34:20.442Z,32.82
2023-07-08T15:35:20.430Z,33.30
2023-07-08T15:36:20.483Z,33.40
2023-07-08T15:37:20.525Z,34.28
2023-07-08T15:38:20.575Z,33.69
2023-07-08T15:39:20.595Z,33.59
2023-07-08T15:40:20.633Z,33.50
2023-07-08T15:41:20.655Z,34.48
2023-07-08T15:42:20.698Z,34.68
2023-07-08T15:43:20.760Z,34.48
2023-07-08T15:44:20.781Z,35.46
2023-07-08T15:45:20.810Z,34.97
2023-07-08T15:46:20.914Z,33.61
2023-07-08T15:47:20.964Z,34.09
2023-07-08T15:48:20.941Z,34.80
2023-07-08T15:49:20.987Z,33.53
2023-07-08T15:50:21.020Z,33.84
2023-07-08T15:51:21.076Z,35.48
2023-07-08T15:52:21.076Z,35.11
2023-07-08T15:53:21.118Z,34.70
2023-07-08T15:54:21.157Z,35.58
2023-07-08T15:55:21.234Z,35.48
2023-07-08T15:56:21.250Z,35.89
2023-07-08T15:57:21.262Z,35.60
2023-07-08T15:58:21.299Z,36.38
2023-07-08T15:59:21.333Z,36.30
2023-07-08T16:00:21.405Z,36.98
2023-07-08T16:01:21.519Z,36.88
2023-07-08T16:02:21.804Z,37.29
2023-07-08T16:03:21.585Z,36.71
2023-07-08T16:04:21.535Z,36.32
2023-07-08T16:05:21.671Z,37.19
2023-07-08T16:06:21.596Z,36.41
2023-07-08T16:07:21.662Z,37.10
2023-07-08T16:08:22.286Z,38.47
2023-07-08T16:09:21.715Z,36.33
2023-07-08T16:10:21.738Z,36.43
2023-07-08T16:11:21.812Z,37.51
2023-07-08T16:12:21.813Z,37.02
2023-07-08T16:13:21.866Z,36.63
2023-07-08T16:14:22.941Z,37.23
2023-07-08T16:15:21.925Z,38.02
2023-07-08T16:16:21.980Z,38.31
2023-07-08T16:17:22.013Z,37.52
2023-07-08T16:18:22.032Z,37.33
2023-07-08T16:19:22.098Z,37.92
2023-07-08T16:20:22.103Z,37.05
2023-07-08T16:21:22.139Z,37.25
2023-07-08T16:22:22.207Z,37.45
2023-07-08T16:23:22.250Z,37.15
2023-07-08T16:24:22.273Z,37.73
2023-07-08T16:25:22.284Z,37.13
2023-07-08T16:26:22.317Z,36.57
2023-07-08T16:27:22.384Z,37.74
2023-07-08T16:28:22.414Z,37.05
2023-07-08T16:29:22.450Z,36.86
2023-07-08T16:30:22.493Z,35.49
2023-07-08T16:31:22.563Z,35.78
2023-07-08T16:32:22.563Z,36.57
2023-07-08T16:33:22.592Z,37.45
2023-07-08T16:34:22.635Z,38.84
2023-07-08T16:35:22.641Z,39.33
2023-07-08T16:36:22.703Z,38.45
2023-07-08T16:37:22.713Z,39.23
2023-07-08T16:38:22.775Z,37.96
2023-07-08T16:39:22.782Z,37.17
2023-07-08T16:40:22.820Z,37.46
2023-07-08T16:41:22.850Z,36.58
2023-07-08T16:42:22.893Z,36.98
2023-07-08T16:43:22.933Z,36.49
2023-07-08T16:44:22.988Z,37.27
2023-07-08T16:45:23.000Z,39.82
2023-07-08T16:46:23.085Z,38.25
2023-07-08T16:47:23.100Z,38.06
2023-07-08T16:48:23.113Z,38.06
2023-07-08T16:49:23.160Z,39.43
2023-07-08T16:50:23.173Z,40.01
2023-07-08T16:51:23.220Z,40.41
2023-07-08T16:52:23.241Z,40.09
2023-07-08T16:53:23.278Z,39.11
2023-07-08T16:54:23.355Z,39.51
2023-07-08T16:55:23.356Z,40.29
2023-07-08T16:56:23.400Z,39.41
2023-07-08T16:57:23.435Z,38.33
2023-07-08T16:58:23.674Z,38.53
2023-07-08T16:59:23.533Z,37.76
2023-07-08T17:00:23.538Z,39.82
2023-07-08T17:01:23.767Z,40.31
2023-07-08T17:02:23.633Z,40.11
2023-07-08T17:03:23.746Z,39.43
2023-07-08T17:04:23.696Z,38.54
2023-07-08T17:05:23.701Z,38.45
2023-07-08T17:06:23.741Z,39.92
2023-07-08T17:07:23.782Z,39.43
2023-07-08T17:08:26.047Z,39.53
2023-07-08T17:09:23.898Z,39.54
2023-07-08T17:10:23.921Z,40.33
2023-07-08T17:11:23.931Z,40.33
2023-07-08T17:12:23.956Z,41.71
2023-07-08T17:13:24.008Z,39.74
2023-07-08T17:14:24.037Z,40.16
2023-07-08T17:15:24.103Z,39.47
2023-07-08T17:16:24.141Z,39.76
2023-07-08T17:17:24.150Z,40.25
2023-07-08T17:18:24.203Z,40.94
2023-07-08T17:19:24.208Z,40.84
2023-07-08T17:20:24.308Z,41.33
2023-07-08T17:21:24.512Z,40.84
2023-07-08T17:22:24.411Z,41.53
2023-07-08T17:23:24.353Z,40.84
2023-07-08T17:24:24.402Z,40.35
2023-07-08T17:25:24.472Z,41.16
2023-07-08T17:26:24.451Z,39.88
2023-07-08T17:27:24.483Z,41.06
2023-07-08T17:28:24.516Z,41.77
2023-07-08T17:29:24.579Z,42.24
2023-07-08T17:30:24.624Z,43.90
2023-07-08T17:31:37.844Z,44.49
2023-07-08T17:32:24.751Z,44.69
2023-07-08T17:33:24.691Z,43.39
2023-07-08T17:34:24.735Z,42.41
2023-07-08T17:35:24.941Z,42.61
2023-07-08T17:36:24.804Z,42.92
2023-07-08T17:37:24.835Z,42.82
2023-07-08T17:38:24.874Z,43.61
2023-07-08T17:39:24.912Z,44.20
2023-07-08T17:40:24.988Z,44.59
2023-07-08T17:41:25.073Z,43.51
2023-07-08T17:42:25.009Z,42.53
2023-07-08T17:43:25.766Z,43.61
2023-07-08T17:44:25.086Z,42.35
2023-07-08T17:45:25.115Z,42.55
2023-07-08T17:46:25.229Z,42.55
2023-07-08T17:47:25.222Z,44.71
2023-07-08T17:48:26.032Z,45.99
2023-07-08T17:49:25.251Z,44.62
2023-07-08T17:50:25.299Z,43.43
2023-07-08T17:51:25.348Z,44.22
2023-07-08T17:52:25.357Z,43.43
2023-07-08T17:53:25.394Z,44.69
2023-07-08T17:54:25.428Z,44.81
2023-07-08T17:55:25.465Z,43.71
2023-07-08T17:56:25.514Z,42.65
2023-07-08T17:57:25.559Z,42.16
2023-07-08T17:58:25.601Z,42.75
2023-07-08T17:59:25.618Z,42.55
2023-07-08T18:00:25.660Z,42.65
2023-07-08T18:01:25.732Z,42.45
2023-07-08T18:02:25.721Z,42.25
2023-07-08T18:03:25.799Z,42.35
2023-07-08T18:04:25.808Z,43.14
2023-07-08T18:05:25.813Z,43.36
2023-07-08T18:06:25.849Z,42.94
2023-07-08T18:07:25.885Z,42.35
2023-07-08T18:08:25.968Z,42.35
2023-07-08T18:09:25.950Z,42.53
2023-07-08T18:10:25.993Z,42.53
2023-07-08T18:11:26.020Z,42.72
2023-07-08T18:12:26.057Z,42.53
2023-07-08T18:13:26.141Z,42.24
2023-07-08T18:14:26.153Z,42.72
2023-07-08T18:15:26.161Z,42.14
2023-07-08T18:16:26.234Z,42.45
2023-07-08T18:17:26.236Z,42.55
2023-07-08T18:18:26.266Z,42.55
2023-07-08T18:19:26.330Z,42.16
2023-07-08T18:20:26.338Z,42.08
2023-07-08T18:21:26.379Z,43.04
2023-07-08T18:22:26.411Z,43.36
2023-07-08T18:23:26.439Z,43.16
2023-07-08T18:24:26.501Z,42.57
2023-07-08T18:25:26.513Z,42.77
2023-07-08T18:26:26.545Z,42.67
2023-07-08T18:27:26.578Z,43.75
2023-07-08T18:28:26.639Z,43.08
2023-07-08T18:29:26.675Z,43.57
2023-07-08T18:30:26.681Z,43.57
2023-07-08T18:31:26.768Z,44.46
2023-07-08T18:32:26.751Z,44.38
2023-07-08T18:33:26.787Z,44.68
2023-07-08T18:34:26.869Z,45.07
2023-07-08T18:35:26.855Z,45.00
2023-07-08T18:36:26.899Z,45.68
2023-07-08T18:37:26.935Z,45.41
2023-07-08T18:38:26.956Z,45.02
2023-07-08T18:39:27.020Z,44.82
2023-07-08T18:40:27.051Z,45.51
2023-07-08T18:41:27.059Z,45.63
2023-07-08T18:42:27.093Z,46.62
2023-07-08T18:43:27.127Z,46.22
2023-07-08T18:44:27.210Z,46.44
2023-07-08T18:45:27.213Z,45.65
2023-07-08T18:46:27.236Z,45.36
2023-07-08T18:47:27.298Z,46.15
2023-07-08T18:48:27.300Z,46.76
2023-07-08T18:49:27.373Z,46.47
2023-07-08T18:50:27.413Z,46.86
2023-07-08T18:51:27.414Z,47.18
2023-07-08T18:52:27.431Z,47.25
2023-07-08T18:53:27.465Z,46.98
2023-07-08T18:54:27.510Z,47.87
2023-07-08T18:55:27.535Z,47.77
2023-07-08T18:56:27.574Z,48.09
2023-07-08T18:57:27.601Z,47.10
2023-07-08T18:58:27.652Z,47.50
2023-07-08T18:59:27.675Z,48.09
2023-07-08T19:00:27.728Z,47.60
2023-07-08T19:01:27.795Z,47.81
2023-07-08T19:02:27.808Z,47.72
2023-07-08T19:03:27.847Z,48.11
2023-07-08T19:04:27.836Z,48.02
2023-07-08T19:05:27.872Z,48.21
2023-07-08T19:06:27.901Z,49.20
2023-07-08T19:07:27.932Z,49.02
2023-07-08T19:08:27.964Z,48.14
2023-07-08T19:09:28.009Z,48.43
2023-07-08T19:10:28.037Z,48.93
2023-07-08T19:11:28.066Z,48.63
2023-07-08T19:12:28.104Z,48.63
2023-07-08T19:13:28.146Z,48.73
2023-07-08T19:14:28.165Z,48.75
2023-07-08T19:15:28.207Z,49.25
2023-07-08T19:16:29.992Z,48.95
2023-07-08T19:17:28.361Z,49.35
2023-07-08T19:18:28.300Z,48.75
2023-07-08T19:19:28.345Z,49.54
2023-07-08T19:20:28.361Z,49.74
2023-07-08T19:21:28.426Z,51.23
2023-07-08T19:22:28.442Z,49.44
2023-07-08T19:23:28.473Z,50.06
2023-07-08T19:24:37.760Z,50.76
2023-07-08T19:25:28.533Z,50.06
2023-07-08T19:26:28.583Z,49.27
2023-07-08T19:27:28.592Z,50.56
2023-07-08T19:28:28.618Z,50.46
2023-07-08T19:29:28.671Z,51.25
2023-07-08T19:30:28.688Z,51.07
2023-07-08T19:31:28.802Z,50.58
2023-07-08T19:32:28.815Z,51.97
2023-07-08T19:33:28.787Z,51.18
2023-07-08T19:34:28.817Z,51.37
2023-07-08T19:35:28.877Z,51.87
2023-07-08T19:36:28.911Z,51.77
2023-07-08T19:37:28.946Z,51.99
2023-07-08T19:38:28.955Z,52.98
2023-07-08T19:39:28.990Z,52.88
2023-07-08T19:40:29.011Z,53.48
2023-07-08T19:41:29.073Z,53.58
2023-07-08T19:42:29.129Z,52.88
2023-07-08T19:43:29.116Z,51.79
2023-07-08T19:44:29.164Z,51.20